DRI-NNSC Building Weather observations

Data are for 10 minute period ending at time listed.
 Day   Time   Solar   Ave.   Ave.  Ave.  Vector  Max.   Baro.   Total    
  of    of     Rad.   Air    Rel.  Wind   Wind   Wind  Press.  Precip.   
Year   Day            Temp.  Hum.  Speed  Dir.   Gust                    
2014   (PST)  Kw/m2    F      %     mph   deg.    mph    mb.     in.     
-------------------------------------------------------------------------
 297    3:10   0.00   48.3    52    0.5    44      2   849.1    0.00 
 297    3:20   0.00   48.2    52    1.2   140      2   849.1    0.00 
 297    3:30   0.00   47.3    54    1.0   151      3   849.0    0.00 
 297    3:40   0.00   47.5    53    1.1   132      2   849.0    0.00 
 297    3:50   0.00   47.4    53    1.0   288      2   849.0    0.00 
 297    4:00   0.00   47.0    53    1.9   318      3   849.0    0.00 
 297    4:10   0.00   47.6    53    0.8   259      3   849.1    0.00 
 297    4:20   0.00   47.6    52    0.7   287      3   849.1    0.00 
 297    4:30   0.00   46.7    54    1.3   257      3   849.0    0.00 
 297    4:40   0.00   46.5    54    1.7   312      3   849.1    0.00 
 297    4:50   0.00   46.6    53    1.1   266      3   849.1    0.00 
 297    5:00   0.00   46.2    53    1.3   214      3   849.1    0.00 
 297    5:10   0.00   46.2    53    1.0   292      2   849.2    0.00 
 297    5:20   0.00   46.8    52    0.8   269      3   849.2    0.00 
 297    5:30   0.00   46.0    53    1.9   306      3   849.2    0.00 
 297    5:40   0.00   46.6    53    1.5   315      3   849.2    0.00 
 297    5:50   0.00   46.8    53    2.0   318      3   849.2    0.00 
 297    6:00   0.00   47.1    52    1.1     4      3   849.3    0.00 
 297    6:10   0.00   46.6    53    1.9    81      3   849.3    0.00 
 297    6:20   0.00   45.8    55    2.0    72      4   849.4    0.00 
 297    6:30   0.01   46.5    53    3.8    62      8   849.5    0.00 
 297    6:40   0.02   46.9    51    3.9    68      8   849.5    0.00 
 297    6:50   0.04   47.0    50    2.8    86      6   849.6    0.00 
 297    7:00   0.07   46.4    50    2.6    68      6   849.7    0.00 
 297    7:10   0.10   45.9    51    2.5    72      6   849.8    0.00 
 297    7:20   0.12   46.2    52    2.8   313      6   849.8    0.00 
 297    7:30   0.15   47.1    51    2.1   284      6   849.8    0.00 
 297    7:40   0.18   48.5    49    3.6   314      9   849.9    0.00 
 297    7:50   0.21   49.5    47    2.7   126      5   849.9    0.00 
 297    8:00   0.24   49.9    46    2.9   139      5   850.0    0.00 
 297    8:10   0.27   51.8    43    1.2   191      3   849.9    0.00 
 297    8:20   0.30   52.4    42    1.2   274      2   850.0    0.00 
 297    8:30   0.32   53.6    41    1.6   224      4   849.9    0.00 
 297    8:40   0.35   55.0    39    2.0    89      5   849.9    0.00 
 297    8:50   0.38   54.9    39    3.7    78      6   849.9    0.00 
 297    9:00   0.40   55.8    36    4.5    96      7   849.9    0.00 
 297    9:10   0.43   56.7    34    4.2    76      6   849.9    0.00 
 297    9:20   0.45   57.7    34    4.6    86      7   849.8    0.00 
 297    9:30   0.48   58.6    32    3.7    69      7   849.8    0.00 
 297    9:40   0.50   60.4    29    3.0    81      6   849.7    0.00 
 297    9:50   0.52   61.3    27    3.9    68      6   849.7    0.00 
 297   10:00   0.54   62.6    26    3.1    88      5   849.6    0.00 
 297   10:10   0.55   63.6    25    2.8   111      6   849.5    0.00 
 297   10:20   0.57   63.9    25    3.9    87      7   849.4    0.00 
 297   10:30   0.58   64.7    23    4.3    91      8   849.3    0.00 
 297   10:40   0.59   65.2    22    3.1    81      6   849.2    0.00 
 297   10:50   0.60   65.9    22    3.5    96      6   849.0    0.00 
 297   11:00   0.61   66.0    20    3.9    48      7   848.9    0.00 
 297   11:10   0.62   66.8    19    3.8    94      8   848.8    0.00 
 297   11:20   0.62   68.1    17    4.7   116      8   848.7    0.00 
 297   11:30   0.64   69.0    16    4.6    98     10   848.5    0.00 
 297   11:40   0.64   70.4    16    4.5   133      9   848.3    0.00 
 297   11:50   0.64   70.9    15    4.9   147     10   848.1    0.00 
 297   12:00   0.64   71.3    15    6.1   150     12   847.9    0.00 
 297   12:10   0.64   72.1    15    5.2   165     10   847.8    0.00 
 297   12:20   0.63   73.2    14    5.6   181     13   847.6    0.00 
 297   12:30   0.62   74.8    12    7.8   195     14   847.4    0.00 
 297   12:40   0.62   76.2    11   10.1   190     20   847.2    0.00 
 297   12:50   0.61   75.7    11    9.8   207     21   847.1    0.00 
 297   13:00   0.60   75.6    11   10.3   211     18   846.9    0.00 
 297   13:10   0.59   77.0    11   10.0   187     24   846.8    0.00 
 297   13:20   0.57   77.0    10   10.6   191     20   846.7    0.00 
 297   13:30   0.56   76.9    11   11.4   193     19   846.6    0.00 
 297   13:40   0.54   77.5    11   11.1   187     22   846.6    0.00 
 297   13:50   0.52   77.5    11   10.8   190     20   846.5    0.00 
 297   14:00   0.50   77.4    11   11.3   184     24   846.4    0.00 
 297   14:10   0.48   77.5    11    9.2   186     20   846.4    0.00 
 297   14:20   0.46   77.6    11    8.9   184     17   846.4    0.00 
 297   14:30   0.44   76.9    11   10.8   187     20   846.3    0.00 
 297   14:40   0.42   76.6    10   12.6   194     25   846.3    0.00 
 297   14:50   0.39   75.9    10   12.4   208     21   846.3    0.00 
 297   15:00   0.36   75.7    10   11.6   210     21   846.2    0.00 
 297   15:10   0.32   75.5    10   13.1   214     22   846.1    0.00 
 297   15:20   0.31   75.4    10   12.1   201     25   846.1    0.00 
 297   15:30   0.28   75.1    11   13.4   207     24   846.1    0.00 
 297   15:40   0.24   74.6    11   12.3   217     21   846.1    0.00 
 297   15:50   0.21   74.4    11   11.5   203     20   846.0    0.00 
 297   16:00   0.18   74.4    11    9.9   202     19   845.9    0.00 
 297   16:10   0.15   73.7    12   10.4   211     19   845.9    0.00 
 297   16:20   0.13   73.6    12    8.8   208     15   846.0    0.00 
 297   16:30   0.10   72.8    12    8.5   217     16   846.0    0.00 
 297   16:40   0.07   72.3    13    6.8   222     12   846.0    0.00 
 297   16:50   0.03   71.2    13    5.9   230     12   846.0    0.00 
 297   17:00   0.02   70.4    14    5.4   217     10   846.1    0.00 
 297   17:10   0.01   69.4    14    4.9   219      9   846.1    0.00 
 297   17:20   0.00   69.2    14    7.3   228     18   846.1    0.00 
 297   17:30   0.00   68.6    14    7.3   232     13   846.1    0.00 
 297   17:40   0.00   68.4    14    8.7   228     15   846.1    0.00 
 297   17:50   0.00   67.8    15    8.4   229     16   846.2    0.00 
 297   18:00   0.00   67.4    15    8.1   224     14   846.2    0.00 
 297   18:10   0.00   67.1    15    6.2   224     10   846.3    0.00 
 297   18:20   0.00   66.5    16    5.3   214     10   846.4    0.00 
 297   18:30   0.00   66.5    15    4.5   213     12   846.5    0.00 
 297   18:40   0.00   66.6    15    6.2   179     17   846.6    0.00 
 297   18:50   0.00   66.2    16    6.3   160     12   846.6    0.00 
 297   19:00   0.00   65.3    17    4.0   173      8   846.7    0.00 
 297   19:10   0.00   64.3    18    3.3   184      8   846.8    0.00 
 297   19:20   0.00   63.5    19    4.2   182     10   846.8    0.00 
 297   19:30   0.00   62.7    19    3.6   192      7   846.8    0.00 
 297   19:40   0.00   63.2    18    4.7   201     10   846.8    0.00 
 297   19:50   0.00   62.6    19    4.9   192     10   846.9    0.00 
 297   20:00   0.00   61.8    20    5.5   213     10   846.9    0.00 
 297   20:10   0.00   62.6    19    4.2   205      8   847.0    0.00 
 297   20:20   0.00   61.8    20    4.9   210      9   847.1    0.00 
 297   20:30   0.00   61.4    20    4.5   209     11   847.2    0.00 
 297   20:40   0.00   62.6    19    5.5   215     12   847.2    0.00 
 297   20:50   0.00   60.6    21    3.7   199      6   847.3    0.00 
 297   21:00   0.00   60.8    22    3.6   197      6   847.3    0.00 
 297   21:10   0.00   60.9    22    3.5   201      7   847.2    0.00 
 297   21:20   0.00   60.1    22    3.4   197      6   847.3    0.00 
 297   21:30   0.00   60.9    20    3.5   195      8   847.3    0.00 
 297   21:40   0.00   61.9    19    5.6   216     16   847.3    0.00 
 297   21:50   0.00   61.5    19    3.7   196      8   847.3    0.00 
 297   22:00   0.00   60.8    19    2.8   198      8   847.3    0.00 
 297   22:10   0.00   60.9    18    3.9   196      9   847.3    0.00 
 297   22:20   0.00   61.1    18    4.1   206      8   847.2    0.00 
 297   22:30   0.00   60.7    18    2.9   205      8   847.1    0.00 
 297   22:40   0.00   61.3    17    5.0   208     13   847.0    0.00 
 297   22:50   0.00   61.0    18    5.3   209     14   846.9    0.00 
 297   23:00   0.00   60.8    18    5.1   208     12   846.8    0.00 
 297   23:10   0.00   60.0    19    5.1   214     12   846.7    0.00 
 297   23:20   0.00   59.9    19    6.7   224     14   846.6    0.00 
 297   23:30   0.00   60.0    19    6.1   221     11   846.6    0.00 
 297   23:40   0.00   59.6    19    6.0   215     11   846.5    0.00 
 297   23:50   0.00   59.3    19    5.7   214     12   846.3    0.00 
 298    0:00   0.00   59.4    19    5.3   225     10   846.2    0.00 
 298    0:10   0.00   59.2    20    3.8   253      9   846.1    0.00 
 298    0:20   0.00   58.9    20    4.4   262     10   846.1    0.00 
 298    0:30   0.00   59.0    20    3.1   290      7   845.9    0.00 
 298    0:40   0.00   58.9    19    3.3   265     11   845.8    0.00 
 298    0:50   0.00   59.4    19    4.4   251     13   845.9    0.00 
 298    1:00   0.00   60.6    18    7.5   198     25   845.7    0.00 
 298    1:10   0.00   60.7    18    4.0   235      9   845.7    0.00 
 298    1:20   0.00   60.6    18    5.1   266     12   845.6    0.00 
 298    1:30   0.00   60.4    18    5.2   238     12   845.7    0.00 
 298    1:40   0.00   60.5    18    6.6   243     12   845.7    0.00 
 298    1:50   0.00   60.3    19    5.9   259     13   845.5    0.00 
 298    2:00   0.00   59.8    19    4.8   238     11   845.3    0.00 
 298    2:10   0.00   59.8    20    4.8   211     10   845.2    0.00 
 298    2:20   0.00   60.2    19   10.1   223     19   845.1    0.00 
 298    2:30   0.00   59.8    20    9.3   221     25   845.0    0.00 
 298    2:40   0.00   61.7    17   16.0   200     31   844.6    0.00 
 298    2:50   0.00   62.1    18   17.9   194     36   844.4    0.00 
 298    3:00   0.00   62.3    17   19.2   196     37   844.4    0.00 

Return to NNSC graphs page.


Western Regional Climate Center,wrcc@dri.edu